Terminal Aerodrome Forecast
Issued by NWS

Home | Current Version | Previous Version | Text Only | Print | Product List | Glossary On
Versions: 1 2 3 4 5 6 7 8 9 10 11 12 13 14 15 16
990
FTUS43 KBIS 240533
TAFDIK
TAF
KDIK 240533Z 2406/2506 01008KT 3SM -SHRA BR BKN003 OVC010
     FM241400 35010KT 3SM BR VCSH OVC003
     FM241800 36012KT P6SM OVC008
     FM242100 36010KT P6SM VCSH OVC010
     FM250000 36008KT P6SM OVC015=

USA.gov is the U.S. government's official web portal to all federal, state and local government web resources and services.